KPF336 LQMO-LQSA
Flight info
| Callsign | KPF336 |
|---|---|
| Flight time | 0h 19m |
| Altitude | 21000 |
| Route | VRANA |
| Aircraft | CL60/M-SBDE1E2E3FGHIJ1J4J5J7M3RWXYZ/LB1V1D1 |
Departure
| Time | 2026-05-07 20:59 |
|---|---|
| Airport | Mostar International Airport (LQMO) |
Arrival
| Time | 2026-05-07 21:18 |
|---|---|
| Airport | Sarajevo International Airport (LQSA) |
| Time | Latitude | Longitude | Altitude | Speed | Heading |
|---|---|---|---|---|---|
| 2026-05-07 20:38 | 43.29072 | 17.83696 | 169 ft | 0 kts | 19° |
| 2026-05-07 20:56 | 43.29076 | 17.83702 | 168 ft | 2 kts | 71° |
| 2026-05-07 20:57 | 43.29058 | 17.83751 | 168 ft | 8 kts | 97° |
| 2026-05-07 20:57 | 43.29089 | 17.83806 | 168 ft | 6 kts | 1° |
| 2026-05-07 20:57 | 43.29144 | 17.83782 | 168 ft | 10 kts | 338° |
| 2026-05-07 20:57 | 43.29203 | 17.83763 | 168 ft | 8 kts | 22° |
| 2026-05-07 20:58 | 43.29243 | 17.83839 | 168 ft | 11 kts | 68° |
| 2026-05-07 20:58 | 43.29271 | 17.83938 | 169 ft | 10 kts | 84° |
| 2026-05-07 20:58 | 43.29257 | 17.84040 | 169 ft | 10 kts | 138° |
| 2026-05-07 20:58 | 43.29051 | 17.84165 | 168 ft | 77 kts | 158° |
| 2026-05-07 20:59 | 43.28210 | 17.84627 | 268 ft | 167 kts | 155° |
| 2026-05-07 20:59 | 43.27060 | 17.85279 | 1190 ft | 188 kts | 155° |
| 2026-05-07 20:59 | 43.25940 | 17.85758 | 2182 ft | 160 kts | 169° |
| 2026-05-07 20:59 | 43.24750 | 17.85922 | 2996 ft | 193 kts | 177° |
| 2026-05-07 21:00 | 43.23306 | 17.85694 | 3703 ft | 231 kts | 194° |
| 2026-05-07 21:00 | 43.21835 | 17.84691 | 4433 ft | 242 kts | 218° |
| 2026-05-07 21:00 | 43.20845 | 17.82800 | 5206 ft | 248 kts | 247° |
| 2026-05-07 21:00 | 43.20497 | 17.80446 | 5965 ft | 266 kts | 266° |
| 2026-05-07 21:01 | 43.20816 | 17.77908 | 6714 ft | 278 kts | 289° |
| 2026-05-07 21:01 | 43.21905 | 17.75700 | 7474 ft | 287 kts | 315° |
| 2026-05-07 21:01 | 43.23683 | 17.74353 | 8248 ft | 296 kts | 340° |
| 2026-05-07 21:01 | 43.25654 | 17.73575 | 8989 ft | 298 kts | 341° |
| 2026-05-07 21:02 | 43.27660 | 17.72789 | 9743 ft | 299 kts | 340° |
| 2026-05-07 21:02 | 43.29673 | 17.71995 | 10469 ft | 309 kts | 340° |
| 2026-05-07 21:02 | 43.31862 | 17.71121 | 10995 ft | 346 kts | 341° |
| 2026-05-07 21:02 | 43.34237 | 17.70177 | 11469 ft | 361 kts | 341° |
| 2026-05-07 21:03 | 43.36700 | 17.69204 | 11970 ft | 363 kts | 341° |
| 2026-05-07 21:03 | 43.39103 | 17.68255 | 12570 ft | 363 kts | 341° |
| 2026-05-07 21:03 | 43.41543 | 17.67288 | 13176 ft | 366 kts | 341° |
| 2026-05-07 21:03 | 43.44002 | 17.66313 | 13849 ft | 369 kts | 341° |
| 2026-05-07 21:04 | 43.46516 | 17.65314 | 14472 ft | 373 kts | 341° |
| 2026-05-07 21:04 | 43.49028 | 17.64315 | 14921 ft | 378 kts | 341° |
| 2026-05-07 21:04 | 43.51566 | 17.63304 | 15070 ft | 379 kts | 340° |
| 2026-05-07 21:04 | 43.54081 | 17.62303 | 15098 ft | 378 kts | 340° |
| 2026-05-07 21:05 | 43.56617 | 17.61292 | 15107 ft | 377 kts | 340° |
| 2026-05-07 21:05 | 43.59172 | 17.60272 | 15110 ft | 377 kts | 341° |
| 2026-05-07 21:05 | 43.61680 | 17.59270 | 15112 ft | 377 kts | 341° |
| 2026-05-07 21:05 | 43.64208 | 17.58259 | 15112 ft | 377 kts | 341° |
| 2026-05-07 21:06 | 43.66737 | 17.57246 | 15112 ft | 376 kts | 341° |
| 2026-05-07 21:06 | 43.69283 | 17.56225 | 15112 ft | 376 kts | 341° |
| 2026-05-07 21:06 | 43.71828 | 17.55282 | 15113 ft | 377 kts | 346° |
| 2026-05-07 21:06 | 43.74471 | 17.55082 | 15117 ft | 384 kts | 2° |
| 2026-05-07 21:07 | 43.77078 | 17.55899 | 15115 ft | 386 kts | 19° |
| 2026-05-07 21:07 | 43.79416 | 17.57676 | 15101 ft | 381 kts | 33° |
| 2026-05-07 21:07 | 43.81565 | 17.59769 | 15099 ft | 372 kts | 34° |
| 2026-05-07 21:07 | 43.83666 | 17.61812 | 15014 ft | 360 kts | 34° |
| 2026-05-07 21:08 | 43.85714 | 17.63802 | 14614 ft | 351 kts | 33° |
| 2026-05-07 21:08 | 43.87698 | 17.65731 | 14185 ft | 345 kts | 34° |
| 2026-05-07 21:08 | 43.89648 | 17.67628 | 13743 ft | 339 kts | 34° |
| 2026-05-07 21:08 | 43.91544 | 17.69473 | 13307 ft | 333 kts | 34° |
| 2026-05-07 21:09 | 43.93440 | 17.71320 | 12865 ft | 329 kts | 34° |
| 2026-05-07 21:09 | 43.95307 | 17.73140 | 12434 ft | 324 kts | 33° |
| 2026-05-07 21:09 | 43.97135 | 17.74922 | 12010 ft | 320 kts | 34° |
| 2026-05-07 21:09 | 43.98950 | 17.76693 | 11591 ft | 316 kts | 34° |
| 2026-05-07 21:10 | 44.00744 | 17.78445 | 11165 ft | 313 kts | 33° |
| 2026-05-07 21:10 | 44.02518 | 17.80192 | 10745 ft | 310 kts | 36° |
| 2026-05-07 21:10 | 44.04031 | 17.82357 | 10276 ft | 310 kts | 56° |
| 2026-05-07 21:10 | 44.04926 | 17.85070 | 9801 ft | 309 kts | 76° |
| 2026-05-07 21:11 | 44.05112 | 17.87988 | 9218 ft | 309 kts | 97° |
| 2026-05-07 21:11 | 44.04577 | 17.90888 | 8637 ft | 299 kts | 112° |
| 2026-05-07 21:11 | 44.03248 | 17.96142 | 8001 ft | 283 kts | 111° |
| 2026-05-07 21:12 | 44.02571 | 17.98700 | 7590 ft | 282 kts | 117° |
| 2026-05-07 21:12 | 44.01427 | 18.00853 | 7196 ft | 273 kts | 142° |
| 2026-05-07 21:12 | 43.99824 | 18.02154 | 6824 ft | 263 kts | 162° |
| 2026-05-07 21:12 | 43.98100 | 18.02977 | 6432 ft | 260 kts | 164° |
| 2026-05-07 21:13 | 43.96416 | 18.03769 | 6121 ft | 254 kts | 164° |
| 2026-05-07 21:13 | 43.94781 | 18.04543 | 5782 ft | 237 kts | 163° |
| 2026-05-07 21:13 | 43.93327 | 18.05426 | 5482 ft | 224 kts | 149° |
| 2026-05-07 21:13 | 43.92271 | 18.06944 | 5393 ft | 218 kts | 126° |
| 2026-05-07 21:14 | 43.91517 | 18.08823 | 5386 ft | 220 kts | 119° |
| 2026-05-07 21:14 | 43.90818 | 18.10734 | 5133 ft | 223 kts | 119° |
| 2026-05-07 21:14 | 43.90120 | 18.12623 | 4847 ft | 217 kts | 119° |
| 2026-05-07 21:14 | 43.89426 | 18.14495 | 4539 ft | 216 kts | 119° |
| 2026-05-07 21:15 | 43.88758 | 18.16298 | 4249 ft | 206 kts | 118° |
| 2026-05-07 21:15 | 43.88125 | 18.18000 | 3931 ft | 186 kts | 119° |
| 2026-05-07 21:15 | 43.87575 | 18.19477 | 3732 ft | 163 kts | 119° |
| 2026-05-07 21:15 | 43.87079 | 18.20806 | 3492 ft | 147 kts | 118° |
| 2026-05-07 21:16 | 43.86613 | 18.22053 | 3337 ft | 147 kts | 118° |
| 2026-05-07 21:16 | 43.86133 | 18.23333 | 3067 ft | 150 kts | 117° |
| 2026-05-07 21:16 | 43.85651 | 18.24625 | 2879 ft | 153 kts | 117° |
| 2026-05-07 21:16 | 43.85176 | 18.25896 | 2659 ft | 139 kts | 117° |
| 2026-05-07 21:17 | 43.84736 | 18.27074 | 2467 ft | 135 kts | 118° |
| 2026-05-07 21:17 | 43.84310 | 18.28217 | 2245 ft | 131 kts | 118° |
| 2026-05-07 21:17 | 43.83886 | 18.29344 | 2099 ft | 132 kts | 117° |
| 2026-05-07 21:17 | 43.83450 | 18.30508 | 1959 ft | 136 kts | 118° |
| 2026-05-07 21:18 | 43.83031 | 18.31620 | 1785 ft | 128 kts | 118° |
| 2026-05-07 21:18 | 43.82636 | 18.32671 | 1718 ft | 110 kts | 118° |
| 2026-05-07 21:18 | 43.82392 | 18.33327 | 1715 ft | 39 kts | 116° |
| 2026-05-07 21:18 | 43.82311 | 18.33544 | 1715 ft | 15 kts | 118° |
| 2026-05-07 21:19 | 43.82276 | 18.33658 | 1715 ft | 10 kts | 73° |
| 2026-05-07 21:19 | 43.82340 | 18.33671 | 1715 ft | 7 kts | 344° |
| 2026-05-07 21:19 | 43.82383 | 18.33654 | 1715 ft | 6 kts | 343° |
| 2026-05-07 21:19 | 43.82418 | 18.33644 | 1715 ft | 5 kts | 11° |
| 2026-05-07 21:20 | 43.82433 | 18.33688 | 1715 ft | 5 kts | 108° |
| 2026-05-07 21:20 | 43.82421 | 18.33748 | 1715 ft | 6 kts | 73° |
| 2026-05-07 21:20 | 43.82446 | 18.33779 | 1715 ft | 6 kts | 30° |
| 2026-05-07 21:20 | 43.82468 | 18.33773 | 1715 ft | 0 kts | 296° |